createdAt,value
2022-08-03T00:01:49.512Z,1.20
2022-08-03T00:04:16.592Z,1.67
2022-08-03T00:06:43.325Z,1.50
2022-08-03T00:09:10.532Z,1.60
2022-08-03T00:11:38.449Z,1.67
2022-08-03T00:14:06.322Z,1.92
2022-08-03T00:16:33.080Z,1.85
2022-08-03T00:19:00.753Z,1.60
2022-08-03T00:21:28.201Z,1.58
2022-08-03T00:23:55.804Z,1.65
2022-08-03T00:26:22.675Z,1.95
2022-08-03T00:28:50.117Z,2.00
2022-08-03T00:31:16.876Z,1.90
2022-08-03T00:34:03.552Z,1.90
2022-08-03T00:36:30.861Z,2.28
2022-08-03T00:38:57.651Z,2.10
2022-08-03T00:41:24.345Z,1.75
2022-08-03T00:43:50.991Z,2.22
2022-08-03T00:46:21.388Z,2.10
2022-08-03T00:48:52.427Z,1.90
2022-08-03T00:51:20.815Z,1.75
2022-08-03T00:53:48.008Z,2.20
2022-08-03T00:56:16.127Z,1.83
2022-08-03T00:58:44.522Z,2.22
2022-08-03T01:01:12.412Z,1.70
2022-08-03T01:03:39.384Z,1.85
2022-08-03T01:06:19.434Z,1.90
2022-08-03T01:09:02.924Z,2.00
2022-08-03T01:12:01.092Z,1.95
2022-08-03T01:14:37.634Z,1.80
2022-08-03T01:17:19.630Z,1.83
2022-08-03T01:19:46.490Z,2.10
2022-08-03T01:22:40.915Z,2.03
2022-08-03T01:25:27.170Z,1.80
2022-08-03T01:28:09.000Z,1.50
2022-08-03T01:30:40.976Z,1.70
2022-08-03T01:33:15.728Z,2.12
2022-08-03T01:35:47.047Z,2.10
2022-08-03T01:38:28.824Z,2.00
2022-08-03T01:40:57.063Z,1.87
2022-08-03T01:44:27.548Z,2.22
2022-08-03T01:46:21.953Z,1.73
2022-08-03T01:48:49.671Z,1.90
2022-08-03T01:51:20.069Z,1.80
2022-08-03T01:53:49.330Z,2.00
2022-08-03T01:56:30.182Z,2.60
2022-08-03T01:59:00.642Z,2.15
2022-08-03T02:02:25.298Z,2.85
2022-08-03T02:04:18.397Z,1.92
2022-08-03T02:07:01.851Z,2.25
2022-08-03T02:09:31.841Z,2.78
2022-08-03T02:12:00.785Z,2.55
2022-08-03T02:14:28.355Z,2.87
2022-08-03T02:16:56.716Z,3.00
2022-08-03T02:19:25.435Z,2.30
2022-08-03T02:21:56.637Z,2.67
2022-08-03T02:24:28.989Z,3.17
2022-08-03T02:26:56.763Z,2.50
2022-08-03T02:29:39.800Z,2.30
2022-08-03T02:32:12.711Z,2.67
2022-08-03T02:34:42.415Z,2.50
2022-08-03T02:37:11.617Z,2.62
2022-08-03T02:39:41.872Z,2.90
2022-08-03T02:42:12.033Z,2.50
2022-08-03T02:44:43.577Z,2.60
2022-08-03T02:47:11.919Z,3.10
2022-08-03T02:49:50.264Z,3.03
2022-08-03T02:52:21.742Z,2.47
2022-08-03T02:54:51.255Z,2.83
2022-08-03T02:57:20.139Z,2.55
2022-08-03T02:59:47.666Z,3.17
2022-08-03T03:02:17.029Z,2.60
2022-08-03T03:05:52.905Z,2.37
2022-08-03T03:07:47.811Z,2.67
2022-08-03T03:10:21.540Z,2.92
2022-08-03T03:12:51.143Z,2.65
2022-08-03T03:15:18.946Z,2.97
2022-08-03T03:17:46.188Z,2.92
2022-08-03T03:20:14.834Z,2.87
2022-08-03T03:22:45.217Z,2.60
2022-08-03T03:25:12.179Z,2.87
2022-08-03T03:27:39.956Z,2.83
2022-08-03T03:30:07.287Z,2.42
2022-08-03T03:32:34.144Z,2.28
2022-08-03T03:35:01.818Z,2.50
2022-08-03T03:37:28.471Z,2.67
2022-08-03T03:39:55.261Z,2.53
2022-08-03T03:42:22.391Z,2.10
2022-08-03T03:44:49.043Z,1.83
2022-08-03T03:47:15.825Z,2.05
2022-08-03T03:49:44.134Z,1.83
2022-08-03T03:52:11.061Z,1.80
2022-08-03T03:54:44.996Z,1.75
2022-08-03T03:57:13.178Z,1.98
2022-08-03T03:59:42.565Z,1.87
2022-08-03T04:02:10.442Z,2.53
2022-08-03T04:04:56.923Z,1.85
2022-08-03T04:07:44.333Z,1.87
2022-08-03T04:10:34.378Z,1.77
2022-08-03T04:15:31.558Z,1.67
2022-08-03T04:17:59.624Z,1.48
2022-08-03T04:20:31.986Z,1.73
2022-08-03T04:23:00.733Z,1.58
2022-08-03T04:25:31.240Z,1.62
2022-08-03T04:28:30.028Z,2.05
2022-08-03T04:30:50.900Z,2.30
2022-08-03T04:33:19.467Z,1.53
2022-08-03T04:36:01.359Z,1.60
2022-08-03T04:38:32.883Z,1.45
2022-08-03T04:41:00.647Z,1.20
2022-08-03T04:43:28.747Z,1.30
2022-08-03T04:45:56.937Z,1.23
2022-08-03T04:48:24.276Z,1.20
2022-08-03T04:50:51.310Z,1.42
2022-08-03T04:53:18.232Z,1.20
2022-08-03T04:55:46.833Z,1.52
2022-08-03T04:58:15.462Z,1.20
2022-08-03T05:00:42.984Z,1.00
2022-08-03T05:03:23.505Z,1.05
2022-08-03T05:06:09.998Z,1.25
2022-08-03T05:08:46.004Z,1.00
2022-08-03T05:11:15.622Z,0.90
2022-08-03T05:13:42.528Z,1.00
2022-08-03T05:16:09.170Z,0.82
2022-08-03T05:18:36.077Z,0.80
2022-08-03T05:21:02.804Z,1.20
2022-08-03T05:23:29.519Z,0.90
2022-08-03T05:25:56.271Z,0.98
2022-08-03T05:28:23.455Z,1.15
2022-08-03T05:30:50.121Z,1.00
2022-08-03T05:33:16.716Z,1.17
2022-08-03T05:36:01.319Z,0.93
2022-08-03T05:38:34.156Z,1.08
2022-08-03T05:41:23.341Z,0.93
2022-08-03T05:43:49.694Z,0.90
2022-08-03T05:46:16.361Z,1.12
2022-08-03T05:48:43.533Z,0.70
2022-08-03T05:51:11.935Z,1.00
2022-08-03T05:53:39.995Z,1.05
2022-08-03T05:56:13.601Z,1.08
2022-08-03T05:58:42.491Z,1.00
2022-08-03T06:01:09.166Z,1.00
2022-08-03T06:03:35.789Z,0.95
2022-08-03T06:06:02.439Z,1.05
2022-08-03T06:08:29.313Z,1.00
2022-08-03T06:10:55.918Z,1.00
2022-08-03T06:13:23.795Z,1.05
2022-08-03T06:15:50.431Z,1.10
2022-08-03T06:18:17.109Z,1.00
2022-08-03T06:20:43.716Z,1.05
2022-08-03T06:23:15.990Z,1.10
2022-08-03T06:25:44.571Z,1.20
2022-08-03T06:28:35.393Z,1.00
2022-08-03T06:30:59.135Z,1.08
2022-08-03T06:33:26.565Z,1.15
2022-08-03T06:36:13.162Z,1.40
2022-08-03T06:38:39.782Z,1.27
2022-08-03T06:41:06.368Z,1.15
2022-08-03T06:43:37.476Z,1.30
2022-08-03T06:46:05.624Z,1.20
2022-08-03T06:48:32.469Z,1.10
2022-08-03T06:50:59.307Z,1.20
2022-08-03T06:53:26.253Z,1.20
2022-08-03T06:55:54.944Z,1.12
2022-08-03T06:58:22.515Z,1.15
2022-08-03T07:00:49.423Z,1.20
2022-08-03T07:03:16.505Z,1.30
2022-08-03T07:05:43.875Z,1.10
2022-08-03T07:08:10.592Z,1.20
2022-08-03T07:10:37.338Z,1.10
2022-08-03T07:13:04.687Z,1.20
2022-08-03T07:15:53.921Z,1.17
2022-08-03T07:18:18.077Z,1.40
2022-08-03T07:20:55.779Z,1.15
2022-08-03T07:23:22.362Z,1.42
2022-08-03T07:25:49.048Z,1.30
2022-08-03T07:28:15.687Z,1.05
2022-08-03T07:30:42.308Z,1.40
2022-08-03T07:33:08.903Z,1.15
2022-08-03T07:35:35.521Z,1.30
2022-08-03T07:38:02.151Z,1.33
2022-08-03T07:40:31.674Z,1.12
2022-08-03T07:42:58.888Z,1.37
2022-08-03T07:45:26.985Z,1.10
2022-08-03T07:47:54.553Z,1.20
2022-08-03T07:50:22.648Z,1.50
2022-08-03T07:52:50.391Z,1.30
2022-08-03T07:55:19.670Z,1.12
2022-08-03T07:57:46.979Z,1.45
2022-08-03T08:00:17.422Z,1.20
2022-08-03T08:02:45.206Z,1.05
2022-08-03T08:05:13.095Z,1.30
2022-08-03T08:07:40.341Z,1.35
2022-08-03T08:10:08.295Z,1.15
2022-08-03T08:12:35.080Z,1.45
2022-08-03T08:15:02.417Z,1.40
2022-08-03T08:17:29.121Z,1.37
2022-08-03T08:19:55.753Z,1.05
2022-08-03T08:22:29.713Z,1.33
2022-08-03T08:24:56.943Z,1.20
2022-08-03T08:27:23.725Z,1.37
2022-08-03T08:29:55.168Z,1.25
2022-08-03T08:32:23.291Z,1.40
2022-08-03T08:34:50.024Z,1.10
2022-08-03T08:37:16.647Z,1.27
2022-08-03T08:39:43.252Z,1.40
2022-08-03T08:42:10.417Z,1.08
2022-08-03T08:44:38.514Z,1.20
2022-08-03T08:47:08.267Z,1.40
2022-08-03T08:49:37.549Z,1.25
2022-08-03T08:52:24.900Z,1.00
2022-08-03T08:55:05.947Z,1.15
2022-08-03T08:57:44.896Z,1.23
2022-08-03T09:02:45.933Z,1.17
2022-08-03T09:05:15.336Z,1.08
2022-08-03T09:07:43.240Z,1.17
2022-08-03T09:10:13.656Z,1.12
2022-08-03T09:12:45.484Z,1.05
2022-08-03T09:15:24.988Z,0.93
2022-08-03T09:17:54.152Z,1.20
2022-08-03T09:20:23.455Z,1.20
2022-08-03T09:22:54.753Z,1.20
2022-08-03T09:25:37.349Z,1.30
2022-08-03T09:28:10.399Z,1.02
2022-08-03T09:30:39.986Z,1.25
2022-08-03T09:33:08.861Z,1.10
2022-08-03T09:36:01.886Z,0.90
2022-08-03T09:38:28.556Z,1.00
2022-08-03T09:40:59.993Z,0.80
2022-08-03T09:43:28.334Z,0.82
2022-08-03T09:46:05.525Z,1.12
2022-08-03T09:48:35.090Z,1.00
2022-08-03T09:51:14.419Z,1.08
2022-08-03T09:53:58.628Z,0.95
2022-08-03T09:56:42.018Z,1.12
2022-08-03T09:59:09.868Z,0.95
2022-08-03T10:01:37.506Z,1.25
2022-08-03T10:04:05.286Z,1.10
2022-08-03T10:06:32.570Z,1.17
2022-08-03T10:09:15.378Z,0.90
2022-08-03T10:11:44.102Z,1.10
2022-08-03T10:14:19.188Z,1.02
2022-08-03T10:16:47.631Z,1.37
2022-08-03T10:19:15.625Z,0.98
2022-08-03T10:21:49.485Z,1.20
2022-08-03T10:24:17.704Z,1.50
2022-08-03T10:26:49.867Z,0.90
2022-08-03T10:29:28.203Z,1.00
2022-08-03T10:31:58.827Z,0.90
2022-08-03T10:34:29.146Z,1.17
2022-08-03T10:36:58.882Z,0.90
2022-08-03T10:39:29.138Z,1.30
2022-08-03T10:41:59.793Z,1.10
2022-08-03T10:44:37.656Z,1.08
2022-08-03T10:47:05.038Z,1.08
2022-08-03T10:49:34.516Z,1.02
2022-08-03T10:52:10.358Z,1.17
2022-08-03T10:55:00.818Z,0.88
2022-08-03T10:57:50.077Z,0.90
2022-08-03T11:00:24.006Z,0.82
2022-08-03T11:03:11.434Z,0.80
2022-08-03T11:05:46.729Z,0.77
2022-08-03T11:08:19.567Z,0.90
2022-08-03T11:10:47.119Z,1.10
2022-08-03T11:13:22.167Z,0.88
2022-08-03T11:15:52.322Z,0.90
2022-08-03T11:18:19.595Z,1.00
2022-08-03T11:20:55.011Z,0.95
2022-08-03T11:24:04.913Z,0.90
2022-08-03T11:26:29.880Z,0.82
2022-08-03T11:29:31.634Z,1.20
2022-08-03T11:31:58.532Z,1.00
2022-08-03T11:34:25.572Z,1.00
2022-08-03T11:37:27.231Z,1.10
2022-08-03T11:39:56.899Z,1.02
2022-08-03T11:42:23.872Z,1.33
2022-08-03T11:44:51.698Z,0.80
2022-08-03T11:47:20.470Z,0.80
2022-08-03T11:49:48.093Z,0.95
2022-08-03T11:52:16.027Z,1.00
2022-08-03T11:54:43.017Z,1.02
2022-08-03T11:57:10.125Z,0.90
2022-08-03T11:59:38.822Z,0.88
2022-08-03T12:02:14.678Z,0.80
2022-08-03T12:04:54.560Z,0.90
2022-08-03T12:08:02.729Z,1.10
2022-08-03T12:10:15.045Z,0.77
2022-08-03T12:12:46.390Z,0.80
2022-08-03T12:15:13.639Z,0.85
2022-08-03T12:17:41.697Z,0.68
2022-08-03T12:20:10.166Z,0.95
2022-08-03T12:22:40.696Z,0.80
2022-08-03T12:25:09.085Z,0.95
2022-08-03T12:27:36.273Z,0.80
2022-08-03T12:30:04.219Z,0.80
2022-08-03T12:32:31.459Z,0.85
2022-08-03T12:35:01.281Z,0.70
2022-08-03T12:37:29.077Z,0.90
2022-08-03T12:40:02.405Z,1.00
2022-08-03T12:42:36.726Z,0.70
2022-08-03T12:45:24.439Z,0.70
2022-08-03T12:47:56.167Z,0.77
2022-08-03T12:50:34.908Z,1.20
2022-08-03T12:53:09.068Z,0.70
2022-08-03T12:55:56.719Z,0.88
2022-08-03T12:58:35.384Z,0.80
2022-08-03T13:01:09.572Z,1.20
2022-08-03T13:03:50.008Z,0.80
2022-08-03T13:06:24.861Z,0.73
2022-08-03T13:09:05.939Z,0.80
2022-08-03T13:11:55.467Z,0.90
2022-08-03T13:14:19.961Z,1.10
2022-08-03T13:16:48.122Z,0.80
2022-08-03T13:19:15.852Z,0.60
2022-08-03T13:22:02.196Z,0.70
2022-08-03T13:24:31.378Z,1.12
2022-08-03T13:26:58.955Z,0.70
2022-08-03T13:29:25.542Z,0.80
2022-08-03T13:31:52.193Z,0.68
2022-08-03T13:34:23.018Z,0.90
2022-08-03T13:37:08.323Z,0.85
2022-08-03T13:39:57.763Z,0.70
2022-08-03T13:42:22.988Z,0.77
2022-08-03T13:44:49.798Z,0.80
2022-08-03T13:47:16.531Z,0.93
2022-08-03T13:49:54.142Z,1.10
2022-08-03T13:52:35.850Z,0.95
2022-08-03T13:55:07.254Z,0.70
2022-08-03T13:58:05.847Z,0.60
2022-08-03T14:00:28.945Z,0.80
2022-08-03T14:03:09.247Z,0.77
2022-08-03T14:05:40.229Z,0.85
2022-08-03T14:08:07.756Z,0.82
2022-08-03T14:10:39.644Z,0.80
2022-08-03T14:13:07.026Z,1.00
2022-08-03T14:15:38.021Z,0.73
2022-08-03T14:18:06.541Z,0.70
2022-08-03T14:20:38.984Z,0.85
2022-08-03T14:23:17.493Z,1.10
2022-08-03T14:25:52.370Z,1.00
2022-08-03T14:28:24.117Z,0.95
2022-08-03T14:30:56.051Z,0.85
2022-08-03T14:33:23.448Z,0.82
2022-08-03T14:35:51.608Z,0.95
2022-08-03T14:38:18.421Z,0.82
2022-08-03T14:40:45.257Z,0.90
2022-08-03T14:43:12.574Z,0.88
2022-08-03T14:45:40.437Z,0.70
2022-08-03T14:50:33.248Z,1.08
2022-08-03T14:50:55.202Z,0.90
2022-08-03T14:53:22.291Z,0.73
2022-08-03T14:55:51.260Z,0.73
2022-08-03T14:58:22.696Z,0.65
2022-08-03T15:00:51.156Z,0.82
2022-08-03T15:03:24.749Z,0.60
2022-08-03T15:05:56.408Z,0.75
2022-08-03T15:08:24.361Z,0.88
2022-08-03T15:10:51.541Z,0.70
2022-08-03T15:13:18.604Z,0.60
2022-08-03T15:15:45.866Z,1.08
2022-08-03T15:18:12.546Z,0.50
2022-08-03T15:20:44.894Z,0.70
2022-08-03T15:23:17.103Z,1.05
2022-08-03T15:26:03.150Z,0.60
2022-08-03T15:28:32.313Z,0.70
2022-08-03T15:30:59.050Z,0.60
2022-08-03T15:33:25.719Z,0.70
2022-08-03T15:35:53.117Z,0.80
2022-08-03T15:38:22.937Z,0.80
2022-08-03T15:40:56.039Z,0.60
2022-08-03T15:43:23.458Z,0.75
2022-08-03T15:46:12.722Z,0.80
2022-08-03T15:48:37.126Z,0.80
2022-08-03T15:51:04.741Z,0.70
2022-08-03T15:53:31.514Z,0.73
2022-08-03T15:55:58.208Z,1.00
2022-08-03T15:59:03.863Z,0.60
2022-08-03T16:01:19.778Z,0.75
2022-08-03T16:03:46.780Z,0.70
2022-08-03T16:06:13.937Z,0.80
2022-08-03T16:08:40.579Z,0.60
2022-08-03T16:11:07.565Z,0.70
2022-08-03T16:14:12.468Z,0.75
2022-08-03T16:16:20.900Z,0.80
2022-08-03T16:18:47.522Z,0.90
2022-08-03T16:21:17.787Z,0.80
2022-08-03T16:23:47.086Z,0.65
2022-08-03T16:26:14.095Z,1.17
2022-08-03T16:28:40.901Z,0.73
2022-08-03T16:31:09.117Z,1.20
2022-08-03T16:33:36.113Z,0.77
2022-08-03T16:36:03.080Z,0.62
2022-08-03T16:38:30.568Z,0.90
2022-08-03T16:40:57.292Z,0.80
2022-08-03T16:43:24.703Z,2.55
2022-08-03T16:45:52.171Z,1.35
2022-08-03T16:48:19.039Z,1.20
2022-08-03T16:50:46.184Z,1.12
2022-08-03T16:53:16.438Z,0.93
2022-08-03T16:55:53.837Z,1.75
2022-08-03T16:58:41.245Z,1.33
2022-08-03T17:01:21.719Z,1.65
2022-08-03T17:04:01.870Z,1.17
2022-08-03T17:06:34.069Z,1.30
2022-08-03T17:09:02.202Z,0.93
2022-08-03T17:11:32.976Z,0.90
2022-08-03T17:14:00.580Z,0.98
2022-08-03T17:16:27.542Z,1.77
2022-08-03T17:19:03.967Z,1.65
2022-08-03T17:21:33.026Z,1.25
2022-08-03T17:24:12.334Z,0.90
2022-08-03T17:26:44.868Z,0.80
2022-08-03T17:29:13.466Z,0.82
2022-08-03T17:31:48.891Z,0.82
2022-08-03T17:34:17.665Z,5.60
2022-08-03T17:39:57.020Z,1.27
2022-08-03T17:42:29.518Z,1.33
2022-08-03T17:45:02.306Z,1.65
2022-08-03T17:47:41.769Z,1.00
2022-08-03T17:53:07.376Z,0.80
2022-08-03T17:55:57.534Z,1.05
2022-08-03T17:58:42.278Z,0.85
2022-08-03T18:02:00.203Z,1.00
2022-08-03T18:04:29.615Z,1.10
2022-08-03T18:06:58.668Z,0.93
2022-08-03T18:10:04.992Z,0.95
2022-08-03T18:12:27.095Z,0.90
2022-08-03T18:15:01.202Z,1.10
2022-08-03T18:18:00.920Z,1.00
2022-08-03T18:20:32.713Z,1.42
2022-08-03T18:23:04.660Z,0.98
2022-08-03T18:25:42.652Z,0.95
2022-08-03T18:28:15.356Z,1.00
2022-08-03T18:34:32.447Z,1.48
2022-08-03T18:36:22.095Z,1.52
2022-08-03T18:38:58.537Z,2.40
2022-08-03T18:41:32.217Z,2.00
2022-08-03T18:44:06.626Z,7.12
2022-08-03T18:47:16.140Z,2.15
2022-08-03T18:50:19.352Z,3.17
2022-08-03T18:53:15.729Z,2.92
2022-08-03T18:56:23.868Z,6.05
2022-08-03T18:58:56.562Z,14.60
2022-08-03T19:01:58.091Z,5.28
2022-08-03T19:04:41.066Z,22.17
2022-08-03T19:07:11.208Z,10.48
2022-08-03T19:09:48.368Z,7.37
2022-08-03T19:12:42.441Z,13.68
2022-08-03T19:15:13.518Z,5.62
2022-08-03T19:17:50.324Z,6.78
2022-08-03T19:20:28.755Z,2.42
2022-08-03T19:22:57.129Z,2.92
2022-08-03T19:25:35.212Z,2.90
2022-08-03T19:28:06.124Z,1.87
2022-08-03T19:30:38.998Z,2.30
2022-08-03T19:33:15.054Z,2.17
2022-08-03T19:35:52.067Z,2.22
2022-08-03T19:38:28.442Z,1.83
2022-08-03T19:40:59.815Z,2.03
2022-08-03T19:43:33.365Z,1.73
2022-08-03T19:46:15.685Z,1.40
2022-08-03T19:48:51.975Z,1.50
2022-08-03T19:51:26.483Z,1.52
2022-08-03T19:54:12.610Z,1.37
2022-08-03T19:56:47.001Z,1.52
2022-08-03T19:59:15.691Z,1.60
2022-08-03T20:01:50.759Z,1.83
2022-08-03T20:04:17.989Z,2.78
2022-08-03T20:06:49.682Z,2.80
2022-08-03T20:09:18.063Z,2.22
2022-08-03T20:11:45.209Z,2.25
2022-08-03T20:14:13.301Z,1.73
2022-08-03T20:16:48.672Z,1.60
2022-08-03T20:19:16.650Z,1.83
2022-08-03T20:21:49.180Z,1.67
2022-08-03T20:24:32.873Z,1.77
2022-08-03T20:27:05.214Z,1.67
2022-08-03T20:30:05.274Z,1.30
2022-08-03T20:32:27.777Z,1.45
2022-08-03T20:34:54.508Z,1.52
2022-08-03T20:37:22.191Z,1.23
2022-08-03T20:39:49.742Z,1.40
2022-08-03T20:42:21.566Z,1.20
2022-08-03T20:45:04.762Z,1.60
2022-08-03T20:47:36.906Z,1.80
2022-08-03T20:50:17.185Z,1.80
2022-08-03T20:52:49.817Z,1.58
2022-08-03T20:55:18.854Z,1.48
2022-08-03T20:57:49.113Z,1.70
2022-08-03T21:00:21.889Z,1.30
2022-08-03T21:02:49.028Z,1.30
2022-08-03T21:05:15.647Z,1.50
2022-08-03T21:08:05.693Z,1.10
2022-08-03T21:10:37.809Z,1.60
2022-08-03T21:13:18.240Z,1.48
2022-08-03T21:16:06.324Z,1.80
2022-08-03T21:18:45.292Z,1.37
2022-08-03T21:21:14.891Z,1.40
2022-08-03T21:23:49.018Z,1.55
2022-08-03T21:26:18.451Z,1.80
2022-08-03T21:28:49.476Z,1.50
2022-08-03T21:31:25.449Z,1.60
2022-08-03T21:33:58.131Z,1.27
2022-08-03T21:36:27.752Z,1.20
2022-08-03T21:38:57.289Z,1.52
2022-08-03T21:41:32.066Z,1.37
2022-08-03T21:43:59.540Z,1.35
2022-08-03T21:46:27.637Z,1.40
2022-08-03T21:50:04.248Z,1.37
2022-08-03T21:51:48.831Z,1.73
2022-08-03T21:56:43.299Z,1.08
2022-08-03T21:59:16.870Z,1.62
2022-08-03T22:01:46.665Z,1.37
2022-08-03T22:04:50.739Z,1.40
2022-08-03T22:07:08.010Z,1.50
2022-08-03T22:09:36.536Z,1.40
2022-08-03T22:12:04.006Z,1.73
2022-08-03T22:14:32.999Z,1.70
2022-08-03T22:17:00.692Z,1.53
2022-08-03T22:19:30.166Z,1.73
2022-08-03T22:21:58.138Z,1.50
2022-08-03T22:24:29.498Z,2.00
2022-08-03T22:27:15.038Z,1.60
2022-08-03T22:29:42.924Z,1.40
2022-08-03T22:32:09.683Z,1.65
2022-08-03T22:34:37.530Z,1.85
2022-08-03T22:37:05.101Z,1.52
2022-08-03T22:39:32.350Z,1.45
2022-08-03T22:41:59.981Z,1.60
2022-08-03T22:44:27.610Z,1.45
2022-08-03T22:46:54.522Z,1.35
2022-08-03T22:49:22.791Z,1.80
2022-08-03T22:51:51.741Z,1.30
2022-08-03T22:54:19.131Z,1.40
2022-08-03T22:56:50.282Z,1.48
2022-08-03T22:59:40.082Z,1.40
2022-08-03T23:02:20.154Z,1.65
2022-08-03T23:04:55.069Z,1.50
2022-08-03T23:07:38.348Z,1.20
2022-08-03T23:10:09.015Z,1.50
2022-08-03T23:12:37.631Z,1.40
2022-08-03T23:15:10.692Z,1.60
2022-08-03T23:17:57.851Z,1.70
2022-08-03T23:20:27.028Z,1.33
2022-08-03T23:22:57.650Z,1.73
2022-08-03T23:25:25.238Z,1.65
2022-08-03T23:28:04.971Z,1.50
2022-08-03T23:30:34.826Z,1.40
2022-08-03T23:33:02.987Z,1.70
2022-08-03T23:36:17.370Z,1.70
2022-08-03T23:38:37.231Z,1.62
2022-08-03T23:41:05.103Z,1.80
2022-08-03T23:43:51.462Z,2.25
2022-08-03T23:46:21.233Z,1.58
2022-08-03T23:48:47.905Z,1.83
2022-08-03T23:51:23.454Z,1.73
2022-08-03T23:54:19.191Z,1.77
2022-08-03T23:57:33.086Z,2.03
